sensor_id;sensor_type;location;lat;lon;timestamp;temperature;humidity
34095;DHT22;20372;47.080;15.410;2022-10-04T00:00:22;7.70;99.90
34095;DHT22;20372;47.080;15.410;2022-10-04T00:02:49;7.70;99.90
34095;DHT22;20372;47.080;15.410;2022-10-04T00:05:16;7.60;99.90
34095;DHT22;20372;47.080;15.410;2022-10-04T00:07:45;7.60;99.90
34095;DHT22;20372;47.080;15.410;2022-10-04T00:12:44;7.40;99.90
34095;DHT22;20372;47.080;15.410;2022-10-04T00:15:21;7.40;99.90
34095;DHT22;20372;47.080;15.410;2022-10-04T00:18:17;7.40;99.90
34095;DHT22;20372;47.080;15.410;2022-10-04T00:25:51;7.50;99.90
34095;DHT22;20372;47.080;15.410;2022-10-04T00:33:33;7.40;99.90
34095;DHT22;20372;47.080;15.410;2022-10-04T00:35:59;7.40;99.90
34095;DHT22;20372;47.080;15.410;2022-10-04T00:38:24;7.40;99.90
34095;DHT22;20372;47.080;15.410;2022-10-04T00:41:00;7.30;99.90
34095;DHT22;20372;47.080;15.410;2022-10-04T00:43:37;7.30;99.90
34095;DHT22;20372;47.080;15.410;2022-10-04T00:46:06;7.30;99.90
34095;DHT22;20372;47.080;15.410;2022-10-04T00:48:54;7.30;99.90
34095;DHT22;20372;47.080;15.410;2022-10-04T00:51:43;7.30;99.90
34095;DHT22;20372;47.080;15.410;2022-10-04T00:54:10;7.20;99.90
34095;DHT22;20372;47.080;15.410;2022-10-04T00:56:42;7.20;99.90
34095;DHT22;20372;47.080;15.410;2022-10-04T01:01:37;7.10;99.90
34095;DHT22;20372;47.080;15.410;2022-10-04T01:04:04;7.20;99.90
34095;DHT22;20372;47.080;15.410;2022-10-04T01:06:31;7.10;99.90
34095;DHT22;20372;47.080;15.410;2022-10-04T01:09:00;7.20;99.90
34095;DHT22;20372;47.080;15.410;2022-10-04T01:11:28;7.20;99.90
34095;DHT22;20372;47.080;15.410;2022-10-04T01:13:56;7.30;99.90
34095;DHT22;20372;47.080;15.410;2022-10-04T01:16:26;7.30;99.90
34095;DHT22;20372;47.080;15.410;2022-10-04T01:18:52;7.20;99.90
34095;DHT22;20372;47.080;15.410;2022-10-04T01:29:00;7.10;99.90
34095;DHT22;20372;47.080;15.410;2022-10-04T01:31:27;7.10;99.90
34095;DHT22;20372;47.080;15.410;2022-10-04T01:33:53;7.10;99.90
34095;DHT22;20372;47.080;15.410;2022-10-04T01:36:19;7.20;99.90
34095;DHT22;20372;47.080;15.410;2022-10-04T01:38:44;7.10;99.90
34095;DHT22;20372;47.080;15.410;2022-10-04T01:41:10;7.10;99.90
34095;DHT22;20372;47.080;15.410;2022-10-04T01:43:39;7.00;99.90
34095;DHT22;20372;47.080;15.410;2022-10-04T01:46:08;6.90;99.90
34095;DHT22;20372;47.080;15.410;2022-10-04T01:48:35;6.90;99.90
34095;DHT22;20372;47.080;15.410;2022-10-04T01:51:07;6.90;99.90
34095;DHT22;20372;47.080;15.410;2022-10-04T01:53:35;6.80;99.90
34095;DHT22;20372;47.080;15.410;2022-10-04T01:56:09;6.80;99.90
34095;DHT22;20372;47.080;15.410;2022-10-04T01:58:47;6.80;99.90
34095;DHT22;20372;47.080;15.410;2022-10-04T02:01:19;6.80;99.90
34095;DHT22;20372;47.080;15.410;2022-10-04T02:03:55;6.90;99.90
34095;DHT22;20372;47.080;15.410;2022-10-04T02:06:22;6.80;99.90
34095;DHT22;20372;47.080;15.410;2022-10-04T02:08:49;6.80;99.90
34095;DHT22;20372;47.080;15.410;2022-10-04T02:11:16;6.80;99.90
34095;DHT22;20372;47.080;15.410;2022-10-04T02:13:44;7.00;99.90
34095;DHT22;20372;47.080;15.410;2022-10-04T02:16:10;7.10;99.90
34095;DHT22;20372;47.080;15.410;2022-10-04T02:18:36;7.00;99.90
34095;DHT22;20372;47.080;15.410;2022-10-04T02:21:03;6.80;99.90
34095;DHT22;20372;47.080;15.410;2022-10-04T02:23:29;6.80;99.90
34095;DHT22;20372;47.080;15.410;2022-10-04T02:25:55;6.90;99.90
34095;DHT22;20372;47.080;15.410;2022-10-04T02:28:21;6.90;99.90
34095;DHT22;20372;47.080;15.410;2022-10-04T02:30:47;6.80;99.90
34095;DHT22;20372;47.080;15.410;2022-10-04T02:33:41;6.70;99.90
34095;DHT22;20372;47.080;15.410;2022-10-04T02:36:08;6.70;99.90
34095;DHT22;20372;47.080;15.410;2022-10-04T02:38:39;6.70;99.90
34095;DHT22;20372;47.080;15.410;2022-10-04T02:46:27;6.90;99.90
34095;DHT22;20372;47.080;15.410;2022-10-04T02:49:11;6.80;99.90
34095;DHT22;20372;47.080;15.410;2022-10-04T02:52:24;6.90;99.90
34095;DHT22;20372;47.080;15.410;2022-10-04T02:54:41;7.00;99.90
34095;DHT22;20372;47.080;15.410;2022-10-04T02:57:16;7.10;99.90
34095;DHT22;20372;47.080;15.410;2022-10-04T02:59:43;7.10;99.90
34095;DHT22;20372;47.080;15.410;2022-10-04T03:02:22;6.90;99.90
34095;DHT22;20372;47.080;15.410;2022-10-04T03:04:48;7.00;99.90
34095;DHT22;20372;47.080;15.410;2022-10-04T03:07:16;6.80;99.90
34095;DHT22;20372;47.080;15.410;2022-10-04T03:09:41;6.50;99.90
34095;DHT22;20372;47.080;15.410;2022-10-04T03:12:07;6.20;99.90
34095;DHT22;20372;47.080;15.410;2022-10-04T03:14:36;6.30;99.90
34095;DHT22;20372;47.080;15.410;2022-10-04T03:17:03;6.60;99.90
34095;DHT22;20372;47.080;15.410;2022-10-04T03:19:29;6.80;99.90
34095;DHT22;20372;47.080;15.410;2022-10-04T03:21:56;6.70;99.90
34095;DHT22;20372;47.080;15.410;2022-10-04T03:24:27;6.70;99.90
34095;DHT22;20372;47.080;15.410;2022-10-04T03:26:55;6.70;99.90
34095;DHT22;20372;47.080;15.410;2022-10-04T03:29:23;6.80;99.90
34095;DHT22;20372;47.080;15.410;2022-10-04T03:31:53;6.70;99.90
34095;DHT22;20372;47.080;15.410;2022-10-04T03:34:23;6.90;99.90
34095;DHT22;20372;47.080;15.410;2022-10-04T03:36:49;6.80;99.90
34095;DHT22;20372;47.080;15.410;2022-10-04T03:39:26;6.60;99.90
34095;DHT22;20372;47.080;15.410;2022-10-04T03:41:52;6.60;99.90
34095;DHT22;20372;47.080;15.410;2022-10-04T03:44:19;6.50;99.90
34095;DHT22;20372;47.080;15.410;2022-10-04T03:46:45;6.60;99.90
34095;DHT22;20372;47.080;15.410;2022-10-04T03:49:22;6.80;99.90
34095;DHT22;20372;47.080;15.410;2022-10-04T03:51:50;6.80;99.90
34095;DHT22;20372;47.080;15.410;2022-10-04T03:54:17;6.60;99.90
34095;DHT22;20372;47.080;15.410;2022-10-04T03:56:45;6.40;99.90
34095;DHT22;20372;47.080;15.410;2022-10-04T03:59:13;6.40;99.90
34095;DHT22;20372;47.080;15.410;2022-10-04T04:07:02;6.30;99.90
34095;DHT22;20372;47.080;15.410;2022-10-04T04:09:34;6.50;99.90
34095;DHT22;20372;47.080;15.410;2022-10-04T04:12:00;6.50;99.90
34095;DHT22;20372;47.080;15.410;2022-10-04T04:14:27;6.40;99.90
34095;DHT22;20372;47.080;15.410;2022-10-04T04:16:53;6.40;99.90
34095;DHT22;20372;47.080;15.410;2022-10-04T04:19:21;6.40;99.90
34095;DHT22;20372;47.080;15.410;2022-10-04T04:21:48;6.30;99.90
34095;DHT22;20372;47.080;15.410;2022-10-04T04:24:24;6.30;99.90
34095;DHT22;20372;47.080;15.410;2022-10-04T04:26:55;6.30;99.90
34095;DHT22;20372;47.080;15.410;2022-10-04T04:29:23;6.30;99.90
34095;DHT22;20372;47.080;15.410;2022-10-04T04:31:55;6.40;99.90
34095;DHT22;20372;47.080;15.410;2022-10-04T04:34:27;6.30;99.90
34095;DHT22;20372;47.080;15.410;2022-10-04T04:37:01;6.30;99.90
34095;DHT22;20372;47.080;15.410;2022-10-04T04:39:28;6.40;99.90
34095;DHT22;20372;47.080;15.410;2022-10-04T04:44:59;6.40;99.90
34095;DHT22;20372;47.080;15.410;2022-10-04T04:49:51;6.40;99.90
34095;DHT22;20372;47.080;15.410;2022-10-04T04:52:18;6.50;99.90
34095;DHT22;20372;47.080;15.410;2022-10-04T04:54:44;6.60;99.90
34095;DHT22;20372;47.080;15.410;2022-10-04T04:57:15;6.60;99.90
34095;DHT22;20372;47.080;15.410;2022-10-04T04:59:45;6.50;99.90
34095;DHT22;20372;47.080;15.410;2022-10-04T05:07:36;6.60;99.90
34095;DHT22;20372;47.080;15.410;2022-10-04T05:10:17;6.70;99.90
34095;DHT22;20372;47.080;15.410;2022-10-04T05:12:43;6.70;99.90
34095;DHT22;20372;47.080;15.410;2022-10-04T05:15:11;6.90;99.90
34095;DHT22;20372;47.080;15.410;2022-10-04T05:17:37;7.10;99.90
34095;DHT22;20372;47.080;15.410;2022-10-04T05:20:02;6.80;99.90
34095;DHT22;20372;47.080;15.410;2022-10-04T05:22:29;6.70;99.90
34095;DHT22;20372;47.080;15.410;2022-10-04T05:24:59;6.80;99.90
34095;DHT22;20372;47.080;15.410;2022-10-04T05:27:31;6.90;99.90
34095;DHT22;20372;47.080;15.410;2022-10-04T05:35:19;7.10;99.90
34095;DHT22;20372;47.080;15.410;2022-10-04T05:42:48;7.20;99.90
34095;DHT22;20372;47.080;15.410;2022-10-04T05:45:19;7.40;99.90
34095;DHT22;20372;47.080;15.410;2022-10-04T05:47:51;7.50;99.90
34095;DHT22;20372;47.080;15.410;2022-10-04T05:50:19;7.60;99.90
34095;DHT22;20372;47.080;15.410;2022-10-04T05:52:46;7.70;99.90
34095;DHT22;20372;47.080;15.410;2022-10-04T06:00:20;8.00;99.90
34095;DHT22;20372;47.080;15.410;2022-10-04T06:03:08;8.20;99.90
34095;DHT22;20372;47.080;15.410;2022-10-04T06:08:08;8.30;99.90
34095;DHT22;20372;47.080;15.410;2022-10-04T06:13:22;8.40;99.90
34095;DHT22;20372;47.080;15.410;2022-10-04T06:21:15;8.50;99.90
34095;DHT22;20372;47.080;15.410;2022-10-04T06:23:53;8.70;99.90
34095;DHT22;20372;47.080;15.410;2022-10-04T06:26:22;8.90;99.90
34095;DHT22;20372;47.080;15.410;2022-10-04T06:29:00;8.90;99.90
34095;DHT22;20372;47.080;15.410;2022-10-04T06:46:48;9.60;99.90
34095;DHT22;20372;47.080;15.410;2022-10-04T06:49:20;9.60;99.90
34095;DHT22;20372;47.080;15.410;2022-10-04T06:52:11;9.80;99.90
34095;DHT22;20372;47.080;15.410;2022-10-04T06:59:55;10.40;99.90
34095;DHT22;20372;47.080;15.410;2022-10-04T07:02:26;10.50;99.90
34095;DHT22;20372;47.080;15.410;2022-10-04T07:07:37;10.70;99.90
34095;DHT22;20372;47.080;15.410;2022-10-04T07:12:33;11.40;99.90
34095;DHT22;20372;47.080;15.410;2022-10-04T07:15:00;11.40;99.90
34095;DHT22;20372;47.080;15.410;2022-10-04T07:17:28;11.50;99.90
34095;DHT22;20372;47.080;15.410;2022-10-04T07:19:55;11.40;99.90
34095;DHT22;20372;47.080;15.410;2022-10-04T07:27:57;12.50;99.90
34095;DHT22;20372;47.080;15.410;2022-10-04T07:30:44;12.90;99.90
34095;DHT22;20372;47.080;15.410;2022-10-04T07:33:16;13.00;99.90
34095;DHT22;20372;47.080;15.410;2022-10-04T07:36:25;13.00;99.90
34095;DHT22;20372;47.080;15.410;2022-10-04T07:38:32;13.30;99.90
34095;DHT22;20372;47.080;15.410;2022-10-04T07:43:29;13.70;99.90
34095;DHT22;20372;47.080;15.410;2022-10-04T07:46:37;13.70;99.90
34095;DHT22;20372;47.080;15.410;2022-10-04T07:48:47;13.90;99.90
34095;DHT22;20372;47.080;15.410;2022-10-04T07:53:56;14.50;99.90
34095;DHT22;20372;47.080;15.410;2022-10-04T07:56:32;14.80;98.80
34095;DHT22;20372;47.080;15.410;2022-10-04T08:01:46;15.20;98.00
34095;DHT22;20372;47.080;15.410;2022-10-04T08:06:56;15.30;98.90
34095;DHT22;20372;47.080;15.410;2022-10-04T08:09:23;15.50;97.50
34095;DHT22;20372;47.080;15.410;2022-10-04T08:11:57;16.10;95.90
34095;DHT22;20372;47.080;15.410;2022-10-04T08:35:36;18.70;92.70
34095;DHT22;20372;47.080;15.410;2022-10-04T08:56:17;20.40;85.00
34095;DHT22;20372;47.080;15.410;2022-10-04T09:17:28;17.80;90.10
34095;DHT22;20372;47.080;15.410;2022-10-04T09:25:20;17.60;91.50
34095;DHT22;20372;47.080;15.410;2022-10-04T09:27:49;17.50;91.80
34095;DHT22;20372;47.080;15.410;2022-10-04T09:30:17;17.90;91.30
34095;DHT22;20372;47.080;15.410;2022-10-04T09:32:54;18.30;90.40
34095;DHT22;20372;47.080;15.410;2022-10-04T09:51:08;18.00;86.70
34095;DHT22;20372;47.080;15.410;2022-10-04T10:10:00;17.60;80.00
34095;DHT22;20372;47.080;15.410;2022-10-04T10:20:55;18.10;85.90
34095;DHT22;20372;47.080;15.410;2022-10-04T10:34:40;18.50;85.00
34095;DHT22;20372;47.080;15.410;2022-10-04T10:47:43;18.30;86.30
34095;DHT22;20372;47.080;15.410;2022-10-04T10:50:21;18.30;85.00
34095;DHT22;20372;47.080;15.410;2022-10-04T10:55:29;18.30;83.70
34095;DHT22;20372;47.080;15.410;2022-10-04T10:58:11;18.20;78.80
34095;DHT22;20372;47.080;15.410;2022-10-04T11:23:49;18.20;89.00
34095;DHT22;20372;47.080;15.410;2022-10-04T11:41:38;18.10;80.60
34095;DHT22;20372;47.080;15.410;2022-10-04T12:07:44;18.60;83.50
34095;DHT22;20372;47.080;15.410;2022-10-04T12:10:18;18.60;81.20
34095;DHT22;20372;47.080;15.410;2022-10-04T12:12:57;18.70;78.40
34095;DHT22;20372;47.080;15.410;2022-10-04T12:23:00;18.50;80.00
34095;DHT22;20372;47.080;15.410;2022-10-04T12:28:11;18.90;81.80
34095;DHT22;20372;47.080;15.410;2022-10-04T12:33:59;18.50;79.40
34095;DHT22;20372;47.080;15.410;2022-10-04T12:51:36;18.60;79.40
34095;DHT22;20372;47.080;15.410;2022-10-04T13:04:38;18.80;80.00
34095;DHT22;20372;47.080;15.410;2022-10-04T13:12:31;18.80;79.50
34095;DHT22;20372;47.080;15.410;2022-10-04T13:17:56;18.80;82.50
34095;DHT22;20372;47.080;15.410;2022-10-04T13:28:22;18.90;80.70
34095;DHT22;20372;47.080;15.410;2022-10-04T13:33:50;18.80;80.70
34095;DHT22;20372;47.080;15.410;2022-10-04T13:36:26;18.80;77.40
34095;DHT22;20372;47.080;15.410;2022-10-04T14:06:04;18.60;77.60
34095;DHT22;20372;47.080;15.410;2022-10-04T14:08:54;18.70;78.90
34095;DHT22;20372;47.080;15.410;2022-10-04T14:16:56;18.70;80.80
34095;DHT22;20372;47.080;15.410;2022-10-04T14:45:02;18.60;80.70
34095;DHT22;20372;47.080;15.410;2022-10-04T14:58:01;18.50;81.00
34095;DHT22;20372;47.080;15.410;2022-10-04T15:05:44;18.50;84.80
34095;DHT22;20372;47.080;15.410;2022-10-04T15:18:23;18.30;87.40
34095;DHT22;20372;47.080;15.410;2022-10-04T15:23:25;18.30;86.70
34095;DHT22;20372;47.080;15.410;2022-10-04T15:26:03;18.20;87.80
34095;DHT22;20372;47.080;15.410;2022-10-04T15:31:29;17.90;85.50
34095;DHT22;20372;47.080;15.410;2022-10-04T15:33:56;17.80;87.10
34095;DHT22;20372;47.080;15.410;2022-10-04T15:55:18;16.60;91.40
34095;DHT22;20372;47.080;15.410;2022-10-04T16:03:03;16.20;91.50
34095;DHT22;20372;47.080;15.410;2022-10-04T16:05:39;16.10;91.80
34095;DHT22;20372;47.080;15.410;2022-10-04T16:29:15;15.00;94.20
34095;DHT22;20372;47.080;15.410;2022-10-04T16:47:34;14.10;96.40
34095;DHT22;20372;47.080;15.410;2022-10-04T16:50:02;13.90;97.00
34095;DHT22;20372;47.080;15.410;2022-10-04T16:52:45;14.00;99.90
34095;DHT22;20372;47.080;15.410;2022-10-04T17:00:42;13.80;99.80
34095;DHT22;20372;47.080;15.410;2022-10-04T17:03:24;13.80;98.50
34095;DHT22;20372;47.080;15.410;2022-10-04T17:06:09;13.70;98.40
34095;DHT22;20372;47.080;15.410;2022-10-04T17:08:47;13.60;98.60
34095;DHT22;20372;47.080;15.410;2022-10-04T17:13:50;13.50;99.10
34095;DHT22;20372;47.080;15.410;2022-10-04T17:16:19;13.50;99.00
34095;DHT22;20372;47.080;15.410;2022-10-04T17:19:04;13.50;99.60
34095;DHT22;20372;47.080;15.410;2022-10-04T17:21:36;13.50;99.30
34095;DHT22;20372;47.080;15.410;2022-10-04T17:29:27;13.50;99.90
34095;DHT22;20372;47.080;15.410;2022-10-04T17:42:39;13.10;99.90
34095;DHT22;20372;47.080;15.410;2022-10-04T17:48:04;12.90;99.90
34095;DHT22;20372;47.080;15.410;2022-10-04T17:53:39;12.70;99.90
34095;DHT22;20372;47.080;15.410;2022-10-04T17:56:35;12.60;99.90
34095;DHT22;20372;47.080;15.410;2022-10-04T17:59:25;12.50;99.90
34095;DHT22;20372;47.080;15.410;2022-10-04T18:01:58;12.40;99.90
34095;DHT22;20372;47.080;15.410;2022-10-04T18:04:27;12.30;99.90
34095;DHT22;20372;47.080;15.410;2022-10-04T18:07:08;12.30;99.90
34095;DHT22;20372;47.080;15.410;2022-10-04T18:09:41;12.30;99.90
34095;DHT22;20372;47.080;15.410;2022-10-04T18:21:53;12.00;99.90
34095;DHT22;20372;47.080;15.410;2022-10-04T18:24:29;11.90;99.90
34095;DHT22;20372;47.080;15.410;2022-10-04T18:27:01;11.90;99.90
34095;DHT22;20372;47.080;15.410;2022-10-04T18:29:40;11.80;99.90
34095;DHT22;20372;47.080;15.410;2022-10-04T18:34:55;11.60;99.90
34095;DHT22;20372;47.080;15.410;2022-10-04T18:37:33;11.70;99.90
34095;DHT22;20372;47.080;15.410;2022-10-04T18:40:12;11.70;99.90
34095;DHT22;20372;47.080;15.410;2022-10-04T18:42:39;11.70;99.90
34095;DHT22;20372;47.080;15.410;2022-10-04T18:47:39;11.50;99.90
34095;DHT22;20372;47.080;15.410;2022-10-04T18:50:50;11.40;99.90
34095;DHT22;20372;47.080;15.410;2022-10-04T18:53:07;11.30;99.90
34095;DHT22;20372;47.080;15.410;2022-10-04T18:55:40;11.30;99.90
34095;DHT22;20372;47.080;15.410;2022-10-04T19:01:30;11.30;99.90
34095;DHT22;20372;47.080;15.410;2022-10-04T19:04:11;11.20;99.90
34095;DHT22;20372;47.080;15.410;2022-10-04T19:06:39;11.10;99.90
34095;DHT22;20372;47.080;15.410;2022-10-04T19:11:46;11.10;99.90
34095;DHT22;20372;47.080;15.410;2022-10-04T19:30:31;10.80;99.90
34095;DHT22;20372;47.080;15.410;2022-10-04T19:40:49;10.80;99.90
34095;DHT22;20372;47.080;15.410;2022-10-04T19:43:20;10.70;99.90
34095;DHT22;20372;47.080;15.410;2022-10-04T19:48:37;10.60;99.90
34095;DHT22;20372;47.080;15.410;2022-10-04T19:51:07;10.60;99.90
34095;DHT22;20372;47.080;15.410;2022-10-04T19:56:00;10.50;99.90
34095;DHT22;20372;47.080;15.410;2022-10-04T19:58:40;10.50;99.90
34095;DHT22;20372;47.080;15.410;2022-10-04T20:01:12;10.50;99.90
34095;DHT22;20372;47.080;15.410;2022-10-04T20:03:38;10.40;99.90
34095;DHT22;20372;47.080;15.410;2022-10-04T20:06:04;10.40;99.90
34095;DHT22;20372;47.080;15.410;2022-10-04T20:08:44;10.30;99.90
34095;DHT22;20372;47.080;15.410;2022-10-04T20:11:19;10.20;99.90
34095;DHT22;20372;47.080;15.410;2022-10-04T20:19:16;10.20;99.90
34095;DHT22;20372;47.080;15.410;2022-10-04T20:21:43;10.10;99.90
34095;DHT22;20372;47.080;15.410;2022-10-04T20:24:15;10.10;99.90
34095;DHT22;20372;47.080;15.410;2022-10-04T20:26:42;10.00;99.90
34095;DHT22;20372;47.080;15.410;2022-10-04T20:32:01;10.00;99.90
34095;DHT22;20372;47.080;15.410;2022-10-04T20:34:30;10.00;99.90
34095;DHT22;20372;47.080;15.410;2022-10-04T20:36:57;9.90;99.90
34095;DHT22;20372;47.080;15.410;2022-10-04T20:42:10;9.80;99.90
34095;DHT22;20372;47.080;15.410;2022-10-04T20:45:04;9.80;99.90
34095;DHT22;20372;47.080;15.410;2022-10-04T20:52:42;9.80;99.90
34095;DHT22;20372;47.080;15.410;2022-10-04T20:55:22;9.80;99.90
34095;DHT22;20372;47.080;15.410;2022-10-04T20:57:53;9.80;99.90
34095;DHT22;20372;47.080;15.410;2022-10-04T21:00:21;9.70;99.90
34095;DHT22;20372;47.080;15.410;2022-10-04T21:02:47;9.70;99.90
34095;DHT22;20372;47.080;15.410;2022-10-04T21:05:14;9.70;99.90
34095;DHT22;20372;47.080;15.410;2022-10-04T21:07:40;9.70;99.90
34095;DHT22;20372;47.080;15.410;2022-10-04T21:10:14;9.70;99.90
34095;DHT22;20372;47.080;15.410;2022-10-04T21:12:40;9.70;99.90
34095;DHT22;20372;47.080;15.410;2022-10-04T21:15:16;9.70;99.90
34095;DHT22;20372;47.080;15.410;2022-10-04T21:23:11;9.60;99.90
34095;DHT22;20372;47.080;15.410;2022-10-04T21:25:40;9.60;99.90
34095;DHT22;20372;47.080;15.410;2022-10-04T21:28:22;9.60;99.90
34095;DHT22;20372;47.080;15.410;2022-10-04T21:30:48;9.50;99.90
34095;DHT22;20372;47.080;15.410;2022-10-04T21:33:13;9.50;99.90
34095;DHT22;20372;47.080;15.410;2022-10-04T21:35:39;9.50;99.90
34095;DHT22;20372;47.080;15.410;2022-10-04T21:38:05;9.50;99.90
34095;DHT22;20372;47.080;15.410;2022-10-04T21:40:30;9.50;99.90
34095;DHT22;20372;47.080;15.410;2022-10-04T21:42:56;9.40;99.90
34095;DHT22;20372;47.080;15.410;2022-10-04T21:45:21;9.40;99.90
34095;DHT22;20372;47.080;15.410;2022-10-04T21:47:47;9.40;99.90
34095;DHT22;20372;47.080;15.410;2022-10-04T21:50:12;9.40;99.90
34095;DHT22;20372;47.080;15.410;2022-10-04T21:52:38;9.50;99.90
34095;DHT22;20372;47.080;15.410;2022-10-04T21:55:03;9.50;99.90
34095;DHT22;20372;47.080;15.410;2022-10-04T21:57:34;9.50;99.90
34095;DHT22;20372;47.080;15.410;2022-10-04T22:00:00;9.50;99.90
34095;DHT22;20372;47.080;15.410;2022-10-04T22:02:26;9.50;99.90
34095;DHT22;20372;47.080;15.410;2022-10-04T22:04:51;9.50;99.90
34095;DHT22;20372;47.080;15.410;2022-10-04T22:07:17;9.50;99.90
34095;DHT22;20372;47.080;15.410;2022-10-04T22:09:42;9.40;99.90
34095;DHT22;20372;47.080;15.410;2022-10-04T22:12:08;9.40;99.90
34095;DHT22;20372;47.080;15.410;2022-10-04T22:14:34;9.30;99.90
34095;DHT22;20372;47.080;15.410;2022-10-04T22:16:59;9.30;99.90
34095;DHT22;20372;47.080;15.410;2022-10-04T22:19:25;9.30;99.90
34095;DHT22;20372;47.080;15.410;2022-10-04T22:21:50;9.30;99.90
34095;DHT22;20372;47.080;15.410;2022-10-04T22:24:17;9.20;99.90
34095;DHT22;20372;47.080;15.410;2022-10-04T22:26:43;9.20;99.90
34095;DHT22;20372;47.080;15.410;2022-10-04T22:29:12;9.20;99.90
34095;DHT22;20372;47.080;15.410;2022-10-04T22:31:38;9.10;99.90
34095;DHT22;20372;47.080;15.410;2022-10-04T22:34:07;9.10;99.90
34095;DHT22;20372;47.080;15.410;2022-10-04T22:36:36;9.10;99.90
34095;DHT22;20372;47.080;15.410;2022-10-04T22:41:31;9.10;99.90
34095;DHT22;20372;47.080;15.410;2022-10-04T22:43:58;9.10;99.90
34095;DHT22;20372;47.080;15.410;2022-10-04T22:46:32;9.10;99.90
34095;DHT22;20372;47.080;15.410;2022-10-04T22:49:00;9.10;99.90
34095;DHT22;20372;47.080;15.410;2022-10-04T22:51:27;9.10;99.90
34095;DHT22;20372;47.080;15.410;2022-10-04T22:53:53;9.00;99.90
34095;DHT22;20372;47.080;15.410;2022-10-04T22:56:18;9.00;99.90
34095;DHT22;20372;47.080;15.410;2022-10-04T22:58:44;9.00;99.90
34095;DHT22;20372;47.080;15.410;2022-10-04T23:01:14;9.00;99.90
34095;DHT22;20372;47.080;15.410;2022-10-04T23:03:41;9.00;99.90
34095;DHT22;20372;47.080;15.410;2022-10-04T23:06:09;9.00;99.90
34095;DHT22;20372;47.080;15.410;2022-10-04T23:08:39;9.00;99.90
34095;DHT22;20372;47.080;15.410;2022-10-04T23:11:04;9.10;99.90
34095;DHT22;20372;47.080;15.410;2022-10-04T23:13:30;9.10;99.90
34095;DHT22;20372;47.080;15.410;2022-10-04T23:15:59;9.00;99.90
34095;DHT22;20372;47.080;15.410;2022-10-04T23:18:26;9.00;99.90
34095;DHT22;20372;47.080;15.410;2022-10-04T23:20:56;9.00;99.90
34095;DHT22;20372;47.080;15.410;2022-10-04T23:23:23;8.90;99.90
34095;DHT22;20372;47.080;15.410;2022-10-04T23:25:52;8.90;99.90
34095;DHT22;20372;47.080;15.410;2022-10-04T23:28:18;8.90;99.90
34095;DHT22;20372;47.080;15.410;2022-10-04T23:30:44;8.90;99.90
34095;DHT22;20372;47.080;15.410;2022-10-04T23:33:12;8.90;99.90
34095;DHT22;20372;47.080;15.410;2022-10-04T23:35:38;8.90;99.90
34095;DHT22;20372;47.080;15.410;2022-10-04T23:38:04;8.90;99.90
34095;DHT22;20372;47.080;15.410;2022-10-04T23:40:31;9.00;99.90
34095;DHT22;20372;47.080;15.410;2022-10-04T23:42:57;8.90;99.90
34095;DHT22;20372;47.080;15.410;2022-10-04T23:45:24;8.90;99.90
34095;DHT22;20372;47.080;15.410;2022-10-04T23:47:53;8.90;99.90
34095;DHT22;20372;47.080;15.410;2022-10-04T23:50:24;8.90;99.90
34095;DHT22;20372;47.080;15.410;2022-10-04T23:52:51;8.90;99.90
34095;DHT22;20372;47.080;15.410;2022-10-04T23:55:21;8.90;99.90
34095;DHT22;20372;47.080;15.410;2022-10-04T23:57:47;8.90;99.90
